Weather at Coral Bay Airport

Public forecast

Using degrees Celsius for public forecast. Weather courtesy of forecast.io.

Closest aviation weather report (METAR) to Coral Bay Airport

Closest report is Learmonth Airport, 56.4 nm (104.5 km) NNE. Retrieved 2020/10/24 05:30 UTC (11 minutes ago):

YPLM 240530Z AUTO 03011KT 9999 // NCD 29/16 Q1008 RF000/0000

Closest aviation forecast (TAF) to Coral Bay Airport

Closest forecast is Learmonth Airport, 56.4 nm (104.5 km) NNE. Retrieved 2020-10-24 00:00 UTC (6 hours ago):

TAF YPLM 232311Z 2400/2500 23011KT CAVOK FM240400 26016KT CAVOK FM241200 23012KT CAVOK